KCTJ

West Georgia Regional - O V Gray Field Airport

Carrollton, Georgia, USA
METAR KCTJ 201550Z AUTO 21003KT 10SM BKN013 OVC019 24/22 A3015 RMK AO2 T02420217
Observed Flight Rules
Aug-20 @ 15:50 UTC (34 minutes ago) Marginal Visual Flight Rules
Wind Visibility Clouds
210° at 3 knots 10 miles
  • Broken at 1,300' AGL
  • Overcast at 1,900' AGL
Temperatures Readings
Current 24°C / 75°F
Dewpoint 22°C / 72°F
Humidity 89%
Altimeter 30.15" Hg
Pressure 1021 hPa
Elevation 354
METAR KCTJ 201550Z AUTO 21003KT 10SM BKN013 OVC019 24/22 A3015 RMK AO2 T02420217
Observed Flight Rules
Aug-20 @ 15:50 UTC
(34 minutes ago)
MVFR
Wind Visibility
210° at 3 knots 10 miles
Clouds
  • Broken at 1,300' AGL
  • Overcast at 1,900' AGL
Temperature Dewpoint
24°C / 75°F 22°C / 72°F
Humidity Altimeter Pressure
89% 30.15" Hg 1021 hPa